sensor_id;sensor_type;location;lat;lon;timestamp;temperature;humidity
75819;DHT22;64453;51.944;9.796;2023-02-15T00:01:26;8.30;51.60
75819;DHT22;64453;51.944;9.796;2023-02-15T00:03:53;8.40;51.60
75819;DHT22;64453;51.944;9.796;2023-02-15T00:06:21;8.40;51.40
75819;DHT22;64453;51.944;9.796;2023-02-15T00:08:48;8.40;50.30
75819;DHT22;64453;51.944;9.796;2023-02-15T00:11:16;8.50;49.70
75819;DHT22;64453;51.944;9.796;2023-02-15T00:14:06;8.30;49.40
75819;DHT22;64453;51.944;9.796;2023-02-15T00:16:35;8.20;50.20
75819;DHT22;64453;51.944;9.796;2023-02-15T00:19:02;8.10;50.70
75819;DHT22;64453;51.944;9.796;2023-02-15T00:21:31;8.20;50.30
75819;DHT22;64453;51.944;9.796;2023-02-15T00:24:01;8.00;50.20
75819;DHT22;64453;51.944;9.796;2023-02-15T00:26:28;8.10;50.60
75819;DHT22;64453;51.944;9.796;2023-02-15T00:28:56;8.20;50.10
75819;DHT22;64453;51.944;9.796;2023-02-15T00:31:26;8.10;50.30
75819;DHT22;64453;51.944;9.796;2023-02-15T00:33:53;8.30;49.60
75819;DHT22;64453;51.944;9.796;2023-02-15T00:36:20;8.30;50.10
75819;DHT22;64453;51.944;9.796;2023-02-15T00:38:47;8.30;49.80
75819;DHT22;64453;51.944;9.796;2023-02-15T00:41:13;8.30;50.70
75819;DHT22;64453;51.944;9.796;2023-02-15T00:43:40;8.40;49.70
75819;DHT22;64453;51.944;9.796;2023-02-15T00:46:07;8.40;50.20
75819;DHT22;64453;51.944;9.796;2023-02-15T00:48:35;8.30;50.50
75819;DHT22;64453;51.944;9.796;2023-02-15T00:51:02;8.30;49.50
75819;DHT22;64453;51.944;9.796;2023-02-15T00:53:29;8.20;49.70
75819;DHT22;64453;51.944;9.796;2023-02-15T00:55:57;8.20;51.20
75819;DHT22;64453;51.944;9.796;2023-02-15T00:58:24;8.20;50.30
75819;DHT22;64453;51.944;9.796;2023-02-15T01:00:52;8.10;49.80
75819;DHT22;64453;51.944;9.796;2023-02-15T01:03:20;8.10;49.70
75819;DHT22;64453;51.944;9.796;2023-02-15T01:05:49;8.10;49.70
75819;DHT22;64453;51.944;9.796;2023-02-15T01:08:16;7.80;49.30
75819;DHT22;64453;51.944;9.796;2023-02-15T01:10:43;7.70;50.70
75819;DHT22;64453;51.944;9.796;2023-02-15T01:13:13;7.80;49.50
75819;DHT22;64453;51.944;9.796;2023-02-15T01:15:41;7.70;50.00
75819;DHT22;64453;51.944;9.796;2023-02-15T01:18:08;7.80;50.00
75819;DHT22;64453;51.944;9.796;2023-02-15T01:20:37;7.50;50.90
75819;DHT22;64453;51.944;9.796;2023-02-15T01:23:07;7.70;50.30
75819;DHT22;64453;51.944;9.796;2023-02-15T01:25:35;7.50;51.60
75819;DHT22;64453;51.944;9.796;2023-02-15T01:28:03;7.80;51.90
75819;DHT22;64453;51.944;9.796;2023-02-15T01:30:30;7.90;50.60
75819;DHT22;64453;51.944;9.796;2023-02-15T01:32:58;8.10;50.10
75819;DHT22;64453;51.944;9.796;2023-02-15T01:35:26;8.00;49.60
75819;DHT22;64453;51.944;9.796;2023-02-15T01:37:54;7.90;51.00
75819;DHT22;64453;51.944;9.796;2023-02-15T01:40:23;7.70;49.50
75819;DHT22;64453;51.944;9.796;2023-02-15T01:42:51;7.70;50.30
75819;DHT22;64453;51.944;9.796;2023-02-15T01:45:23;7.70;50.20
75819;DHT22;64453;51.944;9.796;2023-02-15T01:47:56;7.80;49.70
75819;DHT22;64453;51.944;9.796;2023-02-15T01:50:31;7.90;49.20
75819;DHT22;64453;51.944;9.796;2023-02-15T01:53:05;7.80;49.40
75819;DHT22;64453;51.944;9.796;2023-02-15T01:55:40;7.80;49.00
75819;DHT22;64453;51.944;9.796;2023-02-15T01:58:10;7.90;48.90
75819;DHT22;64453;51.944;9.796;2023-02-15T02:00:37;7.60;49.20
75819;DHT22;64453;51.944;9.796;2023-02-15T02:03:04;7.40;49.70
75819;DHT22;64453;51.944;9.796;2023-02-15T02:05:32;7.50;49.90
75819;DHT22;64453;51.944;9.796;2023-02-15T02:08:01;7.50;50.00
75819;DHT22;64453;51.944;9.796;2023-02-15T02:10:28;7.60;50.20
75819;DHT22;64453;51.944;9.796;2023-02-15T02:12:59;7.70;49.80
75819;DHT22;64453;51.944;9.796;2023-02-15T02:15:35;7.70;50.20
75819;DHT22;64453;51.944;9.796;2023-02-15T02:18:17;7.80;49.60
75819;DHT22;64453;51.944;9.796;2023-02-15T02:21:09;7.80;49.70
75819;DHT22;64453;51.944;9.796;2023-02-15T02:24:14;7.80;49.30
75819;DHT22;64453;51.944;9.796;2023-02-15T02:27:22;7.90;49.10
75819;DHT22;64453;51.944;9.796;2023-02-15T02:30:26;7.80;49.50
75819;DHT22;64453;51.944;9.796;2023-02-15T02:33:34;7.80;49.50
75819;DHT22;64453;51.944;9.796;2023-02-15T02:36:15;7.90;49.30
75819;DHT22;64453;51.944;9.796;2023-02-15T02:38:58;7.90;49.10
75819;DHT22;64453;51.944;9.796;2023-02-15T02:41:38;7.80;48.90
75819;DHT22;64453;51.944;9.796;2023-02-15T02:44:12;7.80;48.70
75819;DHT22;64453;51.944;9.796;2023-02-15T02:46:49;7.80;48.70
75819;DHT22;64453;51.944;9.796;2023-02-15T02:49:29;7.70;48.40
75819;DHT22;64453;51.944;9.796;2023-02-15T02:52:01;7.50;49.40
75819;DHT22;64453;51.944;9.796;2023-02-15T02:54:28;7.40;48.80
75819;DHT22;64453;51.944;9.796;2023-02-15T02:56:59;7.40;49.20
75819;DHT22;64453;51.944;9.796;2023-02-15T02:59:32;7.50;48.40
75819;DHT22;64453;51.944;9.796;2023-02-15T03:02:04;7.20;48.10
75819;DHT22;64453;51.944;9.796;2023-02-15T03:04:41;6.90;49.30
75819;DHT22;64453;51.944;9.796;2023-02-15T03:07:11;6.80;49.40
75819;DHT22;64453;51.944;9.796;2023-02-15T03:09:42;7.10;48.90
75819;DHT22;64453;51.944;9.796;2023-02-15T03:12:14;7.20;48.20
75819;DHT22;64453;51.944;9.796;2023-02-15T03:14:46;7.30;47.90
75819;DHT22;64453;51.944;9.796;2023-02-15T03:17:17;7.30;48.40
75819;DHT22;64453;51.944;9.796;2023-02-15T03:19:47;7.20;48.80
75819;DHT22;64453;51.944;9.796;2023-02-15T03:22:20;7.00;48.70
75819;DHT22;64453;51.944;9.796;2023-02-15T03:24:52;7.10;49.40
75819;DHT22;64453;51.944;9.796;2023-02-15T03:27:23;7.10;48.90
75819;DHT22;64453;51.944;9.796;2023-02-15T03:29:57;7.00;49.30
75819;DHT22;64453;51.944;9.796;2023-02-15T03:32:26;7.10;48.40
75819;DHT22;64453;51.944;9.796;2023-02-15T03:34:56;7.20;49.00
75819;DHT22;64453;51.944;9.796;2023-02-15T03:37:26;7.20;49.00
75819;DHT22;64453;51.944;9.796;2023-02-15T03:39:59;7.30;48.50
75819;DHT22;64453;51.944;9.796;2023-02-15T03:42:55;7.30;48.00
75819;DHT22;64453;51.944;9.796;2023-02-15T03:45:30;7.00;47.50
75819;DHT22;64453;51.944;9.796;2023-02-15T03:48:00;7.10;48.10
75819;DHT22;64453;51.944;9.796;2023-02-15T03:50:30;7.00;48.70
75819;DHT22;64453;51.944;9.796;2023-02-15T03:53:19;7.20;48.60
75819;DHT22;64453;51.944;9.796;2023-02-15T03:55:47;7.20;48.30
75819;DHT22;64453;51.944;9.796;2023-02-15T03:58:15;7.10;48.00
75819;DHT22;64453;51.944;9.796;2023-02-15T04:01:05;7.20;49.10
75819;DHT22;64453;51.944;9.796;2023-02-15T04:03:57;7.20;50.00
75819;DHT22;64453;51.944;9.796;2023-02-15T04:06:27;7.20;50.50
75819;DHT22;64453;51.944;9.796;2023-02-15T04:08:54;7.30;51.20
75819;DHT22;64453;51.944;9.796;2023-02-15T04:11:38;7.40;51.20
75819;DHT22;64453;51.944;9.796;2023-02-15T04:14:05;7.30;51.60
75819;DHT22;64453;51.944;9.796;2023-02-15T04:16:51;7.40;51.50
75819;DHT22;64453;51.944;9.796;2023-02-15T04:19:17;7.40;51.60
75819;DHT22;64453;51.944;9.796;2023-02-15T04:22:03;7.30;51.90
75819;DHT22;64453;51.944;9.796;2023-02-15T04:24:48;7.40;51.80
75819;DHT22;64453;51.944;9.796;2023-02-15T04:27:32;7.40;52.10
75819;DHT22;64453;51.944;9.796;2023-02-15T04:29:59;7.50;51.70
75819;DHT22;64453;51.944;9.796;2023-02-15T04:32:26;7.50;51.50
75819;DHT22;64453;51.944;9.796;2023-02-15T04:34:53;7.50;51.60
75819;DHT22;64453;51.944;9.796;2023-02-15T04:37:21;7.50;51.60
75819;DHT22;64453;51.944;9.796;2023-02-15T04:39:48;7.20;51.60
75819;DHT22;64453;51.944;9.796;2023-02-15T04:42:15;7.50;51.80
75819;DHT22;64453;51.944;9.796;2023-02-15T04:44:42;7.40;51.60
75819;DHT22;64453;51.944;9.796;2023-02-15T04:47:09;7.50;51.50
75819;DHT22;64453;51.944;9.796;2023-02-15T04:49:36;7.50;51.60
75819;DHT22;64453;51.944;9.796;2023-02-15T04:52:03;7.40;51.50
75819;DHT22;64453;51.944;9.796;2023-02-15T04:54:33;7.40;51.70
75819;DHT22;64453;51.944;9.796;2023-02-15T04:57:00;7.40;51.40
75819;DHT22;64453;51.944;9.796;2023-02-15T04:59:27;7.30;51.50
75819;DHT22;64453;51.944;9.796;2023-02-15T05:01:54;7.40;51.70
75819;DHT22;64453;51.944;9.796;2023-02-15T05:04:21;7.50;51.80
75819;DHT22;64453;51.944;9.796;2023-02-15T05:06:48;7.50;51.70
75819;DHT22;64453;51.944;9.796;2023-02-15T05:09:15;7.40;51.70
75819;DHT22;64453;51.944;9.796;2023-02-15T05:11:43;7.30;51.90
75819;DHT22;64453;51.944;9.796;2023-02-15T05:14:10;7.10;52.10
75819;DHT22;64453;51.944;9.796;2023-02-15T05:16:37;7.20;52.40
75819;DHT22;64453;51.944;9.796;2023-02-15T05:19:04;7.30;52.20
75819;DHT22;64453;51.944;9.796;2023-02-15T05:21:31;7.40;52.20
75819;DHT22;64453;51.944;9.796;2023-02-15T05:23:58;7.40;52.00
75819;DHT22;64453;51.944;9.796;2023-02-15T05:26:25;7.50;51.60
75819;DHT22;64453;51.944;9.796;2023-02-15T05:29:11;7.40;51.30
75819;DHT22;64453;51.944;9.796;2023-02-15T05:31:38;7.60;51.40
75819;DHT22;64453;51.944;9.796;2023-02-15T05:34:04;7.50;52.10
75819;DHT22;64453;51.944;9.796;2023-02-15T05:36:31;7.50;51.40
75819;DHT22;64453;51.944;9.796;2023-02-15T05:38:58;7.50;51.50
75819;DHT22;64453;51.944;9.796;2023-02-15T05:41:25;7.30;51.40
75819;DHT22;64453;51.944;9.796;2023-02-15T05:43:55;7.60;51.50
75819;DHT22;64453;51.944;9.796;2023-02-15T05:46:23;7.50;51.50
75819;DHT22;64453;51.944;9.796;2023-02-15T05:48:50;7.40;51.60
75819;DHT22;64453;51.944;9.796;2023-02-15T05:51:17;7.40;51.50
75819;DHT22;64453;51.944;9.796;2023-02-15T05:53:43;7.50;51.90
75819;DHT22;64453;51.944;9.796;2023-02-15T05:56:11;7.40;51.90
75819;DHT22;64453;51.944;9.796;2023-02-15T05:58:40;7.40;52.10
75819;DHT22;64453;51.944;9.796;2023-02-15T06:01:08;7.40;52.10
75819;DHT22;64453;51.944;9.796;2023-02-15T06:03:36;7.40;52.20
75819;DHT22;64453;51.944;9.796;2023-02-15T06:06:04;7.30;52.30
75819;DHT22;64453;51.944;9.796;2023-02-15T06:08:32;7.40;52.50
75819;DHT22;64453;51.944;9.796;2023-02-15T06:11:00;7.40;52.40
75819;DHT22;64453;51.944;9.796;2023-02-15T06:13:27;7.50;52.30
75819;DHT22;64453;51.944;9.796;2023-02-15T06:15:54;7.50;52.20
75819;DHT22;64453;51.944;9.796;2023-02-15T06:18:20;7.50;52.00
75819;DHT22;64453;51.944;9.796;2023-02-15T06:20:49;7.50;52.10
75819;DHT22;64453;51.944;9.796;2023-02-15T06:23:16;7.50;52.10
75819;DHT22;64453;51.944;9.796;2023-02-15T06:25:44;7.40;52.30
75819;DHT22;64453;51.944;9.796;2023-02-15T06:28:11;7.40;53.20
75819;DHT22;64453;51.944;9.796;2023-02-15T06:30:38;7.40;52.50
75819;DHT22;64453;51.944;9.796;2023-02-15T06:33:05;7.50;52.40
75819;DHT22;64453;51.944;9.796;2023-02-15T06:35:32;7.50;52.40
75819;DHT22;64453;51.944;9.796;2023-02-15T06:38:00;7.60;52.30
75819;DHT22;64453;51.944;9.796;2023-02-15T06:40:27;7.40;52.30
75819;DHT22;64453;51.944;9.796;2023-02-15T06:42:53;7.40;52.40
75819;DHT22;64453;51.944;9.796;2023-02-15T06:45:20;7.40;52.30
75819;DHT22;64453;51.944;9.796;2023-02-15T06:47:47;7.40;52.30
75819;DHT22;64453;51.944;9.796;2023-02-15T06:50:14;7.40;52.40
75819;DHT22;64453;51.944;9.796;2023-02-15T06:52:41;7.50;52.10
75819;DHT22;64453;51.944;9.796;2023-02-15T06:55:09;7.40;51.50
75819;DHT22;64453;51.944;9.796;2023-02-15T06:57:35;7.40;52.30
75819;DHT22;64453;51.944;9.796;2023-02-15T07:00:03;7.40;52.30
75819;DHT22;64453;51.944;9.796;2023-02-15T07:02:31;7.40;52.60
75819;DHT22;64453;51.944;9.796;2023-02-15T07:04:58;7.20;52.60
75819;DHT22;64453;51.944;9.796;2023-02-15T07:07:25;7.30;53.10
75819;DHT22;64453;51.944;9.796;2023-02-15T07:09:52;7.30;53.10
75819;DHT22;64453;51.944;9.796;2023-02-15T07:12:20;7.40;52.90
75819;DHT22;64453;51.944;9.796;2023-02-15T07:15:14;7.30;52.60
75819;DHT22;64453;51.944;9.796;2023-02-15T07:17:42;7.40;53.00
75819;DHT22;64453;51.944;9.796;2023-02-15T07:20:12;7.40;53.00
75819;DHT22;64453;51.944;9.796;2023-02-15T07:22:40;7.60;52.70
75819;DHT22;64453;51.944;9.796;2023-02-15T07:25:09;7.40;52.50
75819;DHT22;64453;51.944;9.796;2023-02-15T07:27:37;7.50;52.80
75819;DHT22;64453;51.944;9.796;2023-02-15T07:30:06;7.60;52.70
75819;DHT22;64453;51.944;9.796;2023-02-15T07:32:34;7.60;52.60
75819;DHT22;64453;51.944;9.796;2023-02-15T07:35:01;7.50;52.30
75819;DHT22;64453;51.944;9.796;2023-02-15T07:37:28;7.60;52.40
75819;DHT22;64453;51.944;9.796;2023-02-15T07:39:55;7.60;52.30
75819;DHT22;64453;51.944;9.796;2023-02-15T07:42:21;7.70;52.20
75819;DHT22;64453;51.944;9.796;2023-02-15T07:44:49;7.70;52.20
75819;DHT22;64453;51.944;9.796;2023-02-15T07:47:17;7.70;52.30
75819;DHT22;64453;51.944;9.796;2023-02-15T07:49:44;7.70;52.30
75819;DHT22;64453;51.944;9.796;2023-02-15T07:52:11;7.60;52.20
75819;DHT22;64453;51.944;9.796;2023-02-15T07:54:38;7.70;52.20
75819;DHT22;64453;51.944;9.796;2023-02-15T07:57:05;7.70;52.20
75819;DHT22;64453;51.944;9.796;2023-02-15T07:59:31;7.80;52.20
75819;DHT22;64453;51.944;9.796;2023-02-15T08:01:59;7.70;52.20
75819;DHT22;64453;51.944;9.796;2023-02-15T08:04:26;7.70;51.60
75819;DHT22;64453;51.944;9.796;2023-02-15T08:06:53;7.50;51.70
75819;DHT22;64453;51.944;9.796;2023-02-15T08:09:21;7.60;52.10
75819;DHT22;64453;51.944;9.796;2023-02-15T08:11:48;7.60;52.00
75819;DHT22;64453;51.944;9.796;2023-02-15T08:14:16;7.50;51.20
75819;DHT22;64453;51.944;9.796;2023-02-15T08:16:45;7.40;51.10
75819;DHT22;64453;51.944;9.796;2023-02-15T08:19:17;7.30;51.60
75819;DHT22;64453;51.944;9.796;2023-02-15T08:21:46;7.20;51.60
75819;DHT22;64453;51.944;9.796;2023-02-15T08:24:15;7.00;51.40
75819;DHT22;64453;51.944;9.796;2023-02-15T08:26:42;7.20;51.70
75819;DHT22;64453;51.944;9.796;2023-02-15T08:29:11;7.30;51.80
75819;DHT22;64453;51.944;9.796;2023-02-15T08:31:38;7.40;51.90
75819;DHT22;64453;51.944;9.796;2023-02-15T08:34:07;7.50;52.00
75819;DHT22;64453;51.944;9.796;2023-02-15T08:36:35;7.60;52.00
75819;DHT22;64453;51.944;9.796;2023-02-15T08:39:04;7.40;52.60
75819;DHT22;64453;51.944;9.796;2023-02-15T08:41:33;7.40;53.00
75819;DHT22;64453;51.944;9.796;2023-02-15T08:44:03;7.60;53.10
75819;DHT22;64453;51.944;9.796;2023-02-15T08:46:35;7.40;53.20
75819;DHT22;64453;51.944;9.796;2023-02-15T08:49:03;7.50;53.50
75819;DHT22;64453;51.944;9.796;2023-02-15T08:51:32;7.70;53.60
75819;DHT22;64453;51.944;9.796;2023-02-15T08:54:02;7.80;53.90
75819;DHT22;64453;51.944;9.796;2023-02-15T08:56:33;7.90;53.70
75819;DHT22;64453;51.944;9.796;2023-02-15T08:59:01;7.90;53.30
75819;DHT22;64453;51.944;9.796;2023-02-15T09:01:30;8.10;53.10
75819;DHT22;64453;51.944;9.796;2023-02-15T09:03:59;8.00;52.80
75819;DHT22;64453;51.944;9.796;2023-02-15T09:06:28;8.10;53.20
75819;DHT22;64453;51.944;9.796;2023-02-15T09:08:55;8.20;53.20
75819;DHT22;64453;51.944;9.796;2023-02-15T09:11:25;8.20;53.70
75819;DHT22;64453;51.944;9.796;2023-02-15T09:13:55;8.20;53.70
75819;DHT22;64453;51.944;9.796;2023-02-15T09:16:24;8.10;53.30
75819;DHT22;64453;51.944;9.796;2023-02-15T09:18:52;8.20;54.10
75819;DHT22;64453;51.944;9.796;2023-02-15T09:21:21;8.20;53.90
75819;DHT22;64453;51.944;9.796;2023-02-15T09:23:50;8.30;53.70
75819;DHT22;64453;51.944;9.796;2023-02-15T09:26:20;8.40;53.70
75819;DHT22;64453;51.944;9.796;2023-02-15T09:28:52;8.50;53.70
75819;DHT22;64453;51.944;9.796;2023-02-15T09:31:22;8.50;53.20
75819;DHT22;64453;51.944;9.796;2023-02-15T09:33:50;8.50;52.90
75819;DHT22;64453;51.944;9.796;2023-02-15T09:36:19;8.60;53.00
75819;DHT22;64453;51.944;9.796;2023-02-15T09:38:52;8.60;52.90
75819;DHT22;64453;51.944;9.796;2023-02-15T09:41:43;8.70;52.90
75819;DHT22;64453;51.944;9.796;2023-02-15T09:44:54;8.50;52.80
75819;DHT22;64453;51.944;9.796;2023-02-15T09:48:06;8.40;52.60
75819;DHT22;64453;51.944;9.796;2023-02-15T09:50:58;8.50;52.90
75819;DHT22;64453;51.944;9.796;2023-02-15T09:53:42;8.50;53.00
75819;DHT22;64453;51.944;9.796;2023-02-15T09:56:23;8.50;53.20
75819;DHT22;64453;51.944;9.796;2023-02-15T09:58:59;8.70;53.30
75819;DHT22;64453;51.944;9.796;2023-02-15T10:01:37;8.80;53.00
75819;DHT22;64453;51.944;9.796;2023-02-15T10:04:21;8.80;53.40
75819;DHT22;64453;51.944;9.796;2023-02-15T10:07:07;8.80;53.00
75819;DHT22;64453;51.944;9.796;2023-02-15T10:09:51;8.80;53.00
75819;DHT22;64453;51.944;9.796;2023-02-15T10:12:37;8.90;52.70
75819;DHT22;64453;51.944;9.796;2023-02-15T10:15:28;8.90;52.70
75819;DHT22;64453;51.944;9.796;2023-02-15T10:18:14;8.80;52.60
75819;DHT22;64453;51.944;9.796;2023-02-15T10:20:55;8.80;52.70
75819;DHT22;64453;51.944;9.796;2023-02-15T10:23:37;8.70;53.00
75819;DHT22;64453;51.944;9.796;2023-02-15T10:26:16;8.70;53.00
75819;DHT22;64453;51.944;9.796;2023-02-15T10:28:48;8.60;53.10
75819;DHT22;64453;51.944;9.796;2023-02-15T10:31:27;8.70;53.40
75819;DHT22;64453;51.944;9.796;2023-02-15T10:34:17;8.70;53.30
75819;DHT22;64453;51.944;9.796;2023-02-15T10:37:16;8.80;53.10
75819;DHT22;64453;51.944;9.796;2023-02-15T10:40:00;8.90;53.20
75819;DHT22;64453;51.944;9.796;2023-02-15T10:42:40;8.90;52.90
75819;DHT22;64453;51.944;9.796;2023-02-15T10:45:21;8.90;52.50
75819;DHT22;64453;51.944;9.796;2023-02-15T10:48:13;9.00;52.40
75819;DHT22;64453;51.944;9.796;2023-02-15T10:50:49;9.00;52.60
75819;DHT22;64453;51.944;9.796;2023-02-15T10:53:34;9.00;52.80
75819;DHT22;64453;51.944;9.796;2023-02-15T10:56:21;8.90;52.80
75819;DHT22;64453;51.944;9.796;2023-02-15T10:59:10;8.90;52.80
75819;DHT22;64453;51.944;9.796;2023-02-15T11:01:49;8.80;52.50
75819;DHT22;64453;51.944;9.796;2023-02-15T11:04:39;9.00;53.30
75819;DHT22;64453;51.944;9.796;2023-02-15T11:07:16;9.10;52.90
75819;DHT22;64453;51.944;9.796;2023-02-15T11:09:49;9.00;52.00
75819;DHT22;64453;51.944;9.796;2023-02-15T11:12:20;8.60;51.50
75819;DHT22;64453;51.944;9.796;2023-02-15T11:14:53;8.60;52.20
75819;DHT22;64453;51.944;9.796;2023-02-15T11:17:26;8.70;53.40
75819;DHT22;64453;51.944;9.796;2023-02-15T11:20:02;8.90;52.10
75819;DHT22;64453;51.944;9.796;2023-02-15T11:22:35;8.50;52.20
75819;DHT22;64453;51.944;9.796;2023-02-15T11:25:16;8.40;53.50
75819;DHT22;64453;51.944;9.796;2023-02-15T11:27:45;8.60;53.10
75819;DHT22;64453;51.944;9.796;2023-02-15T11:30:19;8.80;52.50
75819;DHT22;64453;51.944;9.796;2023-02-15T11:32:48;8.90;52.50
75819;DHT22;64453;51.944;9.796;2023-02-15T11:35:21;9.10;52.30
75819;DHT22;64453;51.944;9.796;2023-02-15T11:37:57;9.20;52.50
75819;DHT22;64453;51.944;9.796;2023-02-15T11:40:31;9.10;52.10
75819;DHT22;64453;51.944;9.796;2023-02-15T11:43:04;9.20;52.20
75819;DHT22;64453;51.944;9.796;2023-02-15T11:45:34;9.30;52.20
75819;DHT22;64453;51.944;9.796;2023-02-15T11:48:09;9.20;51.90
75819;DHT22;64453;51.944;9.796;2023-02-15T11:50:37;9.40;51.90
75819;DHT22;64453;51.944;9.796;2023-02-15T11:53:10;9.30;52.00
75819;DHT22;64453;51.944;9.796;2023-02-15T11:55:39;9.40;52.20
75819;DHT22;64453;51.944;9.796;2023-02-15T11:58:16;9.50;52.60
75819;DHT22;64453;51.944;9.796;2023-02-15T12:00:53;9.50;52.00
75819;DHT22;64453;51.944;9.796;2023-02-15T12:03:27;9.60;51.70
75819;DHT22;64453;51.944;9.796;2023-02-15T12:06:02;9.60;52.10
75819;DHT22;64453;51.944;9.796;2023-02-15T12:08:37;9.50;52.30
75819;DHT22;64453;51.944;9.796;2023-02-15T12:11:07;9.50;52.50
75819;DHT22;64453;51.944;9.796;2023-02-15T12:13:54;9.40;52.70
75819;DHT22;64453;51.944;9.796;2023-02-15T12:16:22;9.70;52.80
75819;DHT22;64453;51.944;9.796;2023-02-15T12:18:50;9.70;52.60
75819;DHT22;64453;51.944;9.796;2023-02-15T12:21:25;9.80;52.50
75819;DHT22;64453;51.944;9.796;2023-02-15T12:23:58;9.80;53.00
75819;DHT22;64453;51.944;9.796;2023-02-15T12:26:29;9.80;52.80
75819;DHT22;64453;51.944;9.796;2023-02-15T12:28:58;9.80;52.60
75819;DHT22;64453;51.944;9.796;2023-02-15T12:31:32;9.90;52.60
75819;DHT22;64453;51.944;9.796;2023-02-15T12:34:09;9.90;52.60
75819;DHT22;64453;51.944;9.796;2023-02-15T12:36:43;10.00;51.70
75819;DHT22;64453;51.944;9.796;2023-02-15T12:39:22;9.90;52.80
75819;DHT22;64453;51.944;9.796;2023-02-15T12:42:00;10.10;52.40
75819;DHT22;64453;51.944;9.796;2023-02-15T12:44:31;10.10;52.20
75819;DHT22;64453;51.944;9.796;2023-02-15T12:47:01;10.10;51.90
75819;DHT22;64453;51.944;9.796;2023-02-15T12:49:29;10.00;51.80
75819;DHT22;64453;51.944;9.796;2023-02-15T12:51:58;10.10;51.90
75819;DHT22;64453;51.944;9.796;2023-02-15T12:54:36;10.40;52.30
75819;DHT22;64453;51.944;9.796;2023-02-15T12:57:29;10.40;52.50
75819;DHT22;64453;51.944;9.796;2023-02-15T12:59:58;10.50;52.50
75819;DHT22;64453;51.944;9.796;2023-02-15T13:02:35;10.50;52.30
75819;DHT22;64453;51.944;9.796;2023-02-15T13:05:17;10.50;51.60
75819;DHT22;64453;51.944;9.796;2023-02-15T13:07:49;10.50;51.70
75819;DHT22;64453;51.944;9.796;2023-02-15T13:10:27;10.60;51.70
75819;DHT22;64453;51.944;9.796;2023-02-15T13:12:55;10.60;51.40
75819;DHT22;64453;51.944;9.796;2023-02-15T13:15:35;10.70;51.40
75819;DHT22;64453;51.944;9.796;2023-02-15T13:18:04;10.80;51.20
75819;DHT22;64453;51.944;9.796;2023-02-15T13:20:32;10.80;50.80
75819;DHT22;64453;51.944;9.796;2023-02-15T13:23:04;10.90;50.70
75819;DHT22;64453;51.944;9.796;2023-02-15T13:25:40;10.90;50.30
75819;DHT22;64453;51.944;9.796;2023-02-15T13:28:17;11.00;50.40
75819;DHT22;64453;51.944;9.796;2023-02-15T13:30:47;11.00;50.40
75819;DHT22;64453;51.944;9.796;2023-02-15T13:33:19;11.10;50.00
75819;DHT22;64453;51.944;9.796;2023-02-15T13:35:58;10.90;50.00
75819;DHT22;64453;51.944;9.796;2023-02-15T13:38:46;11.10;49.80
75819;DHT22;64453;51.944;9.796;2023-02-15T13:41:24;11.10;49.80
75819;DHT22;64453;51.944;9.796;2023-02-15T13:44:02;11.30;50.10
75819;DHT22;64453;51.944;9.796;2023-02-15T13:46:45;11.40;50.00
75819;DHT22;64453;51.944;9.796;2023-02-15T13:49:31;11.20;49.80
75819;DHT22;64453;51.944;9.796;2023-02-15T13:52:13;11.50;49.90
75819;DHT22;64453;51.944;9.796;2023-02-15T13:55:08;11.60;50.00
75819;DHT22;64453;51.944;9.796;2023-02-15T13:58:22;11.60;49.80
75819;DHT22;64453;51.944;9.796;2023-02-15T14:01:08;11.80;49.80
75819;DHT22;64453;51.944;9.796;2023-02-15T14:06:53;12.00;49.50
75819;DHT22;64453;51.944;9.796;2023-02-15T14:10:04;12.10;49.40
75819;DHT22;64453;51.944;9.796;2023-02-15T14:13:02;12.10;49.20
75819;DHT22;64453;51.944;9.796;2023-02-15T14:15:58;12.20;49.30
75819;DHT22;64453;51.944;9.796;2023-02-15T14:18:34;12.00;48.70
75819;DHT22;64453;51.944;9.796;2023-02-15T14:21:06;12.20;48.70
75819;DHT22;64453;51.944;9.796;2023-02-15T14:23:44;12.40;48.40
75819;DHT22;64453;51.944;9.796;2023-02-15T14:26:23;12.40;47.90
75819;DHT22;64453;51.944;9.796;2023-02-15T14:29:03;12.40;47.50
75819;DHT22;64453;51.944;9.796;2023-02-15T14:31:39;12.40;47.20
75819;DHT22;64453;51.944;9.796;2023-02-15T14:34:18;12.50;47.60
75819;DHT22;64453;51.944;9.796;2023-02-15T14:36:48;12.60;47.40
75819;DHT22;64453;51.944;9.796;2023-02-15T14:39:25;12.60;47.80
75819;DHT22;64453;51.944;9.796;2023-02-15T14:42:18;12.60;48.20
75819;DHT22;64453;51.944;9.796;2023-02-15T14:44:55;12.60;48.50
75819;DHT22;64453;51.944;9.796;2023-02-15T14:47:27;12.80;48.10
75819;DHT22;64453;51.944;9.796;2023-02-15T14:49:57;12.90;47.90
75819;DHT22;64453;51.944;9.796;2023-02-15T14:52:23;12.90;48.00
75819;DHT22;64453;51.944;9.796;2023-02-15T14:54:58;13.00;48.10
75819;DHT22;64453;51.944;9.796;2023-02-15T14:57:30;12.90;47.90
75819;DHT22;64453;51.944;9.796;2023-02-15T15:00:00;12.90;47.90
75819;DHT22;64453;51.944;9.796;2023-02-15T15:02:44;12.80;47.90
75819;DHT22;64453;51.944;9.796;2023-02-15T15:05:18;13.00;47.80
75819;DHT22;64453;51.944;9.796;2023-02-15T15:07:49;13.00;47.80
75819;DHT22;64453;51.944;9.796;2023-02-15T15:10:38;13.00;47.50
75819;DHT22;64453;51.944;9.796;2023-02-15T15:16:35;13.00;47.40
75819;DHT22;64453;51.944;9.796;2023-02-15T15:22:34;12.90;47.60
75819;DHT22;64453;51.944;9.796;2023-02-15T15:25:03;12.70;47.10
75819;DHT22;64453;51.944;9.796;2023-02-15T15:27:54;12.90;47.30
75819;DHT22;64453;51.944;9.796;2023-02-15T15:30:47;12.90;47.20
75819;DHT22;64453;51.944;9.796;2023-02-15T15:33:44;13.10;47.20
75819;DHT22;64453;51.944;9.796;2023-02-15T15:42:56;13.10;46.50
75819;DHT22;64453;51.944;9.796;2023-02-15T15:46:28;13.10;46.30
75819;DHT22;64453;51.944;9.796;2023-02-15T15:49:09;13.20;46.30
75819;DHT22;64453;51.944;9.796;2023-02-15T15:51:40;13.20;46.00
75819;DHT22;64453;51.944;9.796;2023-02-15T15:54:15;13.10;45.70
75819;DHT22;64453;51.944;9.796;2023-02-15T15:56:44;13.20;45.90
75819;DHT22;64453;51.944;9.796;2023-02-15T15:59:18;13.20;45.70
75819;DHT22;64453;51.944;9.796;2023-02-15T16:01:48;13.30;45.70
75819;DHT22;64453;51.944;9.796;2023-02-15T16:04:26;13.30;45.60
75819;DHT22;64453;51.944;9.796;2023-02-15T16:06:56;13.20;45.60
75819;DHT22;64453;51.944;9.796;2023-02-15T16:09:24;12.80;45.60
75819;DHT22;64453;51.944;9.796;2023-02-15T16:11:54;12.90;45.90
75819;DHT22;64453;51.944;9.796;2023-02-15T16:14:28;12.90;46.20
75819;DHT22;64453;51.944;9.796;2023-02-15T16:16:58;12.80;46.20
75819;DHT22;64453;51.944;9.796;2023-02-15T16:19:33;12.70;46.20
75819;DHT22;64453;51.944;9.796;2023-02-15T16:22:02;12.60;46.20
75819;DHT22;64453;51.944;9.796;2023-02-15T16:27:48;12.50;46.40
75819;DHT22;64453;51.944;9.796;2023-02-15T16:30:22;12.30;46.60
75819;DHT22;64453;51.944;9.796;2023-02-15T16:32:54;12.20;46.70
75819;DHT22;64453;51.944;9.796;2023-02-15T16:35:25;12.20;46.80
75819;DHT22;64453;51.944;9.796;2023-02-15T16:37:52;12.10;47.20
75819;DHT22;64453;51.944;9.796;2023-02-15T16:40:39;12.00;47.10
75819;DHT22;64453;51.944;9.796;2023-02-15T16:43:16;12.10;47.20